Topinabee, Michigan
Current Conditions -  °F | °C
As of 6:54 PM on Saturday 22 Nov 2014 (Local Time) from KPLN Reporting Station
Haze Haze  
Wind Chill: 36°   Ceiling: 300
Heat Index: 39°   Visibility: 4mi
Dew Point: 38°   Wind: 5mph
Humidity: 96%   Direction: 220°SW
Pressure: 29.77"   Gusts: NA
Location:  45.48°N, 84.6°W
Report Text: KPLN 222354Z AUTO 22004KT 4SM BR OVC003 04/03 A2977 RMK AO2 SLP088 T00390033 10044 20039 53004
Loading
Personal Weather Stations






























Interactive Weather Map New forecast layout! Learn more

10-Day Weather Forecast

Advertisements
Track Severe Weather on mobile